createdAt,value
2023-03-22T00:01:30.803Z,5.13
2023-03-22T00:03:58.141Z,3.83
2023-03-22T00:06:25.452Z,5.60
2023-03-22T00:08:53.437Z,4.13
2023-03-22T00:11:22.541Z,3.73
2023-03-22T00:13:52.442Z,5.10
2023-03-22T00:16:19.931Z,3.97
2023-03-22T00:18:46.861Z,4.67
2023-03-22T00:21:15.859Z,4.43
2023-03-22T00:23:43.430Z,3.90
2023-03-22T00:26:11.134Z,3.93
2023-03-22T00:28:37.990Z,5.17
2023-03-22T00:31:05.565Z,3.97
2023-03-22T00:33:32.284Z,5.03
2023-03-22T00:36:01.635Z,4.77
2023-03-22T00:38:42.609Z,4.80
2023-03-22T00:41:12.674Z,4.03
2023-03-22T00:43:39.815Z,3.80
2023-03-22T00:46:06.957Z,4.77
2023-03-22T00:48:33.699Z,4.67
2023-03-22T00:51:00.552Z,4.17
2023-03-22T00:53:28.993Z,3.43
2023-03-22T00:55:56.753Z,3.47
2023-03-22T00:58:23.561Z,4.83
2023-03-22T01:00:50.335Z,5.10
2023-03-22T01:03:17.484Z,5.07
2023-03-22T01:05:49.204Z,4.77
2023-03-22T01:08:16.756Z,5.87
2023-03-22T01:10:44.738Z,3.93
2023-03-22T01:13:12.271Z,4.77
2023-03-22T01:15:38.900Z,4.33
2023-03-22T01:18:05.732Z,4.50
2023-03-22T01:20:32.687Z,3.93
2023-03-22T01:22:59.544Z,4.60
2023-03-22T01:25:26.258Z,4.03
2023-03-22T01:27:53.798Z,3.93
2023-03-22T01:30:20.442Z,4.53
2023-03-22T01:32:47.100Z,4.43
2023-03-22T01:35:13.653Z,4.63
2023-03-22T01:37:40.498Z,4.70
2023-03-22T01:40:07.986Z,4.40
2023-03-22T01:42:34.990Z,4.70
2023-03-22T01:45:13.766Z,5.67
2023-03-22T01:47:54.903Z,4.00
2023-03-22T01:50:22.948Z,3.77
2023-03-22T01:52:51.846Z,5.50
2023-03-22T01:55:22.586Z,4.13
2023-03-22T01:57:50.591Z,3.90
2023-03-22T02:00:18.710Z,4.20
2023-03-22T02:02:48.360Z,4.93
2023-03-22T02:05:15.956Z,4.10
2023-03-22T02:07:43.122Z,4.07
2023-03-22T02:10:16.095Z,4.87
2023-03-22T02:12:45.563Z,3.60
2023-03-22T02:15:37.588Z,3.63
2023-03-22T02:18:27.632Z,3.67
2023-03-22T02:21:26.948Z,3.80
2023-03-22T02:24:17.492Z,4.47
2023-03-22T02:27:16.113Z,4.27
2023-03-22T02:30:07.007Z,4.40
2023-03-22T02:32:52.526Z,2.80
2023-03-22T02:35:37.234Z,5.07
2023-03-22T02:38:15.144Z,4.73
2023-03-22T02:40:47.583Z,4.00
2023-03-22T02:43:30.863Z,3.57
2023-03-22T02:46:05.596Z,3.63
2023-03-22T02:48:41.838Z,3.77
2023-03-22T02:51:14.785Z,4.20
2023-03-22T02:53:55.432Z,3.83
2023-03-22T02:56:30.217Z,3.87
2023-03-22T02:59:00.859Z,5.20
2023-03-22T03:01:32.986Z,3.90
2023-03-22T03:04:04.676Z,3.80
2023-03-22T03:06:35.681Z,4.07
2023-03-22T03:09:05.146Z,4.23
2023-03-22T03:11:32.433Z,3.60
2023-03-22T03:13:59.305Z,4.77
2023-03-22T03:16:30.611Z,4.07
2023-03-22T03:19:08.842Z,3.80
2023-03-22T03:21:54.096Z,4.30
2023-03-22T03:24:52.675Z,2.67
2023-03-22T03:27:33.537Z,3.47
2023-03-22T03:30:15.249Z,4.27
2023-03-22T03:32:56.377Z,3.40
2023-03-22T03:35:32.409Z,3.47
2023-03-22T03:38:13.310Z,3.43
2023-03-22T03:40:51.726Z,5.03
2023-03-22T03:43:19.453Z,4.07
2023-03-22T03:45:46.642Z,3.07
2023-03-22T03:48:21.417Z,4.10
2023-03-22T03:50:51.948Z,3.30
2023-03-22T03:53:18.658Z,3.23
2023-03-22T03:55:45.220Z,3.33
2023-03-22T03:58:11.836Z,4.13
2023-03-22T04:00:39.376Z,3.67
2023-03-22T04:03:06.814Z,4.10
2023-03-22T04:05:33.765Z,3.40
2023-03-22T04:08:00.590Z,3.40
2023-03-22T04:10:27.125Z,4.20
2023-03-22T04:12:53.803Z,3.77
2023-03-22T04:15:20.372Z,3.50
2023-03-22T04:17:47.013Z,3.13
2023-03-22T04:20:13.818Z,4.50
2023-03-22T04:22:41.223Z,4.53
2023-03-22T04:25:11.880Z,4.70
2023-03-22T04:27:40.113Z,4.13
2023-03-22T04:30:10.975Z,3.50
2023-03-22T04:32:38.346Z,3.47
2023-03-22T04:35:05.782Z,3.50
2023-03-22T04:37:32.451Z,4.33
2023-03-22T04:39:59.298Z,3.33
2023-03-22T04:42:26.546Z,3.37
2023-03-22T04:44:53.131Z,2.97
2023-03-22T04:47:19.698Z,2.90
2023-03-22T04:49:46.330Z,4.07
2023-03-22T04:52:12.914Z,3.43
2023-03-22T04:54:39.706Z,3.17
2023-03-22T04:57:06.965Z,2.70
2023-03-22T04:59:33.565Z,4.40
2023-03-22T05:02:00.255Z,3.77
2023-03-22T05:04:27.306Z,3.70
2023-03-22T05:06:53.925Z,3.20
2023-03-22T05:09:23.339Z,3.80
2023-03-22T05:11:50.379Z,3.00
2023-03-22T05:14:17.114Z,3.33
2023-03-22T05:16:43.829Z,3.07
2023-03-22T05:19:16.280Z,3.47
2023-03-22T05:21:44.115Z,4.00
2023-03-22T05:24:11.695Z,3.53
2023-03-22T05:26:42.251Z,3.13
2023-03-22T05:29:10.799Z,2.77
2023-03-22T05:31:37.488Z,2.93
2023-03-22T05:34:04.657Z,3.13
2023-03-22T05:36:31.304Z,2.87
2023-03-22T05:38:57.940Z,4.03
2023-03-22T05:41:24.560Z,3.33
2023-03-22T05:43:51.107Z,3.07
2023-03-22T05:46:17.766Z,4.27
2023-03-22T05:48:44.444Z,3.00
2023-03-22T05:51:17.492Z,3.03
2023-03-22T05:53:48.162Z,2.93
2023-03-22T05:56:15.582Z,3.20
2023-03-22T05:58:42.502Z,3.37
2023-03-22T06:01:11.567Z,2.40
2023-03-22T06:03:39.074Z,3.20
2023-03-22T06:06:10.451Z,3.13
2023-03-22T06:08:38.499Z,3.80
2023-03-22T06:11:05.979Z,3.10
2023-03-22T06:13:33.176Z,5.37
2023-03-22T06:16:01.968Z,3.03
2023-03-22T06:18:29.562Z,3.67
2023-03-22T06:20:56.397Z,3.33
2023-03-22T06:23:23.032Z,3.70
2023-03-22T06:25:49.807Z,4.00
2023-03-22T06:28:16.760Z,3.77
2023-03-22T06:30:43.513Z,4.17
2023-03-22T06:33:10.238Z,3.60
2023-03-22T06:35:36.935Z,5.40
2023-03-22T06:38:03.585Z,4.60
2023-03-22T06:40:30.240Z,4.70
2023-03-22T06:42:56.872Z,5.10
2023-03-22T06:45:23.491Z,6.23
2023-03-22T06:47:50.534Z,6.37
2023-03-22T06:50:17.266Z,6.67
2023-03-22T06:52:43.904Z,5.87
2023-03-22T06:55:10.571Z,5.37
2023-03-22T06:57:37.111Z,5.43
2023-03-22T07:00:05.293Z,5.00
2023-03-22T07:02:31.914Z,5.37
2023-03-22T07:04:58.528Z,5.17
2023-03-22T07:07:25.092Z,4.73
2023-03-22T07:09:52.752Z,4.17
2023-03-22T07:12:19.410Z,4.60
2023-03-22T07:14:46.224Z,6.43
2023-03-22T07:17:14.075Z,3.70
2023-03-22T07:19:42.532Z,3.77
2023-03-22T07:22:09.364Z,6.07
2023-03-22T07:24:40.317Z,4.30
2023-03-22T07:27:11.288Z,3.83
2023-03-22T07:29:37.893Z,4.07
2023-03-22T07:32:04.725Z,3.97
2023-03-22T07:34:31.499Z,4.73
2023-03-22T07:36:58.692Z,3.80
2023-03-22T07:39:25.517Z,6.53
2023-03-22T07:41:52.427Z,4.43
2023-03-22T07:44:19.010Z,4.83
2023-03-22T07:46:45.643Z,4.53
2023-03-22T07:49:12.460Z,3.40
2023-03-22T07:51:39.102Z,4.60
2023-03-22T07:54:07.603Z,5.53
2023-03-22T07:56:34.620Z,4.00
2023-03-22T07:59:01.333Z,2.90
2023-03-22T08:01:27.928Z,2.93
2023-03-22T08:03:54.470Z,4.00
2023-03-22T08:06:21.433Z,3.53
2023-03-22T08:08:48.125Z,3.60
2023-03-22T08:11:14.790Z,3.70
2023-03-22T08:13:41.700Z,4.27
2023-03-22T08:16:08.555Z,3.57
2023-03-22T08:18:35.431Z,4.63
2023-03-22T08:21:02.083Z,3.83
2023-03-22T08:23:40.833Z,4.37
2023-03-22T08:26:08.707Z,4.33
2023-03-22T08:28:35.477Z,5.00
2023-03-22T08:31:02.602Z,3.67
2023-03-22T08:33:29.310Z,4.07
2023-03-22T08:36:10.478Z,5.30
2023-03-22T08:38:37.016Z,4.50
2023-03-22T08:41:03.687Z,2.20
2023-03-22T08:43:30.281Z,4.27
2023-03-22T08:45:57.335Z,2.50
2023-03-22T08:48:24.799Z,3.17
2023-03-22T08:50:51.430Z,3.63
2023-03-22T08:53:18.011Z,2.30
2023-03-22T08:55:44.847Z,2.97
2023-03-22T08:58:13.105Z,2.20
2023-03-22T09:00:48.546Z,3.03
2023-03-22T09:03:16.142Z,3.03
2023-03-22T09:05:42.979Z,2.93
2023-03-22T09:08:18.224Z,3.07
2023-03-22T09:10:51.056Z,4.37
2023-03-22T09:13:18.174Z,3.37
2023-03-22T09:15:45.240Z,2.90
2023-03-22T09:18:12.174Z,2.53
2023-03-22T09:20:39.493Z,2.80
2023-03-22T09:23:06.474Z,2.70
2023-03-22T09:25:33.126Z,2.90
2023-03-22T09:27:59.749Z,3.03
2023-03-22T09:30:27.141Z,3.70
2023-03-22T09:32:54.346Z,4.00
2023-03-22T09:35:21.353Z,2.33
2023-03-22T09:37:49.202Z,2.80
2023-03-22T09:40:17.627Z,2.27
2023-03-22T09:42:57.160Z,3.37
2023-03-22T09:45:39.576Z,2.80
2023-03-22T09:48:19.270Z,3.33
2023-03-22T09:50:52.516Z,3.80
2023-03-22T09:53:20.946Z,2.30
2023-03-22T09:56:02.611Z,2.50
2023-03-22T09:58:45.687Z,2.40
2023-03-22T10:01:24.449Z,2.33
2023-03-22T10:04:10.691Z,1.63
2023-03-22T10:06:37.478Z,3.60
2023-03-22T10:09:14.710Z,2.40
2023-03-22T10:12:04.829Z,3.17
2023-03-22T10:14:41.321Z,2.97
2023-03-22T10:17:15.962Z,2.10
2023-03-22T10:19:51.910Z,2.47
2023-03-22T10:22:24.897Z,3.07
2023-03-22T10:24:53.330Z,2.20
2023-03-22T10:27:22.919Z,2.77
2023-03-22T10:30:07.497Z,1.60
2023-03-22T10:32:57.450Z,3.70
2023-03-22T10:35:25.248Z,2.27
2023-03-22T10:37:54.473Z,2.00
2023-03-22T10:40:26.086Z,3.43
2023-03-22T10:43:10.318Z,2.50
2023-03-22T10:45:37.237Z,2.33
2023-03-22T10:48:09.260Z,3.03
2023-03-22T10:50:44.197Z,2.13
2023-03-22T10:53:47.384Z,1.30
2023-03-22T10:56:19.959Z,1.77
2023-03-22T10:58:48.264Z,1.53
2023-03-22T11:01:25.479Z,1.60
2023-03-22T11:03:56.792Z,1.33
2023-03-22T11:06:35.138Z,2.47
2023-03-22T11:09:20.857Z,2.77
2023-03-22T11:11:56.005Z,1.53
2023-03-22T11:14:35.527Z,2.67
2023-03-22T11:17:12.445Z,1.70
2023-03-22T11:19:42.096Z,1.63
2023-03-22T11:22:34.663Z,2.13
2023-03-22T11:25:02.748Z,1.77
2023-03-22T11:27:32.874Z,2.23
2023-03-22T11:30:21.559Z,1.23
2023-03-22T11:32:48.631Z,2.63
2023-03-22T11:35:27.030Z,2.03
2023-03-22T11:37:55.495Z,1.50
2023-03-22T11:40:23.612Z,1.17
2023-03-22T11:42:54.478Z,1.47
2023-03-22T11:45:31.719Z,3.83
2023-03-22T11:48:21.594Z,4.40
2023-03-22T11:50:48.755Z,2.47
2023-03-22T11:53:23.010Z,2.10
2023-03-22T11:55:52.900Z,1.60
2023-03-22T11:58:28.878Z,1.70
2023-03-22T12:00:59.560Z,1.40
2023-03-22T12:03:39.529Z,2.43
2023-03-22T12:06:25.791Z,1.90
2023-03-22T12:08:58.188Z,2.00
2023-03-22T12:11:33.681Z,2.90
2023-03-22T12:14:25.820Z,4.70
2023-03-22T12:16:58.156Z,1.33
2023-03-22T12:19:55.668Z,1.20
2023-03-22T12:22:32.158Z,3.27
2023-03-22T12:25:00.118Z,1.33
2023-03-22T12:28:07.475Z,2.10
2023-03-22T12:30:42.121Z,1.30
2023-03-22T12:33:26.511Z,2.03
2023-03-22T12:35:57.846Z,1.27
2023-03-22T12:38:50.871Z,1.47
2023-03-22T12:41:47.895Z,2.03
2023-03-22T12:44:38.152Z,2.23
2023-03-22T12:47:16.421Z,1.50
2023-03-22T12:50:07.588Z,1.40
2023-03-22T12:52:45.700Z,2.20
2023-03-22T12:55:37.440Z,2.57
2023-03-22T12:58:08.749Z,1.97
2023-03-22T13:00:44.114Z,1.97
2023-03-22T13:03:20.856Z,1.67
2023-03-22T13:05:50.603Z,2.40
2023-03-22T13:08:22.235Z,3.97
2023-03-22T13:11:04.164Z,1.90
2023-03-22T13:13:44.678Z,1.83
2023-03-22T13:16:11.484Z,1.73
2023-03-22T13:18:56.180Z,1.57
2023-03-22T13:21:29.241Z,1.37
2023-03-22T13:24:21.347Z,2.87
2023-03-22T13:26:53.920Z,1.87
2023-03-22T13:29:39.066Z,1.37
2023-03-22T13:32:33.367Z,1.30
2023-03-22T13:35:00.747Z,1.63
2023-03-22T13:37:35.023Z,1.60
2023-03-22T13:40:22.030Z,1.20
2023-03-22T13:42:50.509Z,2.27
2023-03-22T13:45:31.800Z,1.53
2023-03-22T13:48:12.420Z,1.50
2023-03-22T13:50:39.795Z,1.60
2023-03-22T13:53:15.687Z,2.07
2023-03-22T13:55:57.733Z,1.43
2023-03-22T13:58:32.907Z,1.70
2023-03-22T14:01:00.884Z,3.13
2023-03-22T14:03:35.104Z,1.17
2023-03-22T14:06:13.791Z,1.40
2023-03-22T14:08:43.730Z,1.80
2023-03-22T14:11:20.636Z,1.17
2023-03-22T14:13:51.353Z,1.57
2023-03-22T14:16:48.701Z,1.63
2023-03-22T14:19:29.143Z,1.57
